Time;durP1;ratioP1;P1;durP2;ratioP2;P2;SDS_P1;SDS_P2;PMS_P1;PMS_P2;Temp;Humidity;BMP_temperature;BMP_pressure;BME280_temperature;BME280_humidity;BME280_pressure;Samples;Min_cycle;Max_cycle;Signal;HPM_P1;HPM_P2
2021/07/12 00:00:14;;;;;;;1.17;0.50;;;23.50;59.70;;;;;;4994471;28;20383;-67
2021/07/12 00:02:40;;;;;;;0.80;0.50;;;23.50;59.70;;;;;;4995042;28;20426;-65
2021/07/12 00:05:07;;;;;;;1.00;0.50;;;23.40;59.50;;;;;;4993853;28;20444;-65
2021/07/12 00:07:33;;;;;;;0.70;0.40;;;23.40;59.50;;;;;;5010051;28;20918;-65
2021/07/12 00:09:58;;;;;;;1.60;0.50;;;23.50;59.50;;;;;;4994658;28;20429;-65
2021/07/12 00:12:24;;;;;;;0.73;0.43;;;23.40;59.40;;;;;;4993643;28;20419;-65
2021/07/12 00:14:50;;;;;;;1.30;0.50;;;23.40;59.40;;;;;;4994064;28;20390;-65
2021/07/12 00:17:16;;;;;;;1.10;0.50;;;23.40;59.50;;;;;;4994431;28;20458;-65
2021/07/12 00:19:42;;;;;;;0.80;0.47;;;23.40;59.30;;;;;;4994716;28;20394;-65
2021/07/12 00:22:08;;;;;;;0.70;0.43;;;23.40;59.30;;;;;;4994948;28;20761;-65
2021/07/12 00:24:33;;;;;;;1.23;0.57;;;23.40;59.20;;;;;;5014158;28;20899;-65
2021/07/12 00:26:59;;;;;;;0.70;0.40;;;23.40;59.20;;;;;;5014050;28;20408;-65
2021/07/12 00:29:25;;;;;;;1.00;0.50;;;23.40;59.30;;;;;;5012189;28;20479;-65
2021/07/12 00:31:50;;;;;;;1.10;0.40;;;23.40;59.20;;;;;;5012623;28;20413;-65
2021/07/12 00:34:16;;;;;;;2.70;0.70;;;23.40;59.20;;;;;;5013690;28;20393;-65
2021/07/12 00:36:42;;;;;;;0.88;0.52;;;23.40;59.40;;;;;;5013786;28;21003;-65
2021/07/12 00:39:07;;;;;;;1.30;0.60;;;23.40;59.20;;;;;;5013870;28;20420;-65
2021/07/12 00:41:35;;;;;;;1.40;0.50;;;23.30;59.10;;;;;;5014162;28;20491;-64
2021/07/12 00:44:01;;;;;;;1.10;0.50;;;23.40;59.20;;;;;;5013403;28;20393;-65
2021/07/12 00:46:27;;;;;;;1.07;0.40;;;23.40;59.10;;;;;;5013827;28;20428;-65
2021/07/12 00:48:52;;;;;;;1.45;0.60;;;23.40;59.10;;;;;;5013779;28;20424;-65
2021/07/12 00:51:18;;;;;;;1.03;0.50;;;23.40;59.10;;;;;;5013723;28;20459;-65
2021/07/12 00:53:44;;;;;;;1.10;0.40;;;23.30;59.00;;;;;;5014169;28;20389;-65
2021/07/12 00:56:10;;;;;;;0.80;0.50;;;23.30;59.10;;;;;;5013233;28;20404;-65
2021/07/12 00:58:36;;;;;;;0.95;0.50;;;23.30;59.00;;;;;;5013566;28;20392;-65
2021/07/12 01:01:04;;;;;;;0.98;0.40;;;23.30;59.00;;;;;;5013318;28;20385;-65
2021/07/12 01:03:29;;;;;;;1.35;0.57;;;23.30;59.00;;;;;;5013540;28;20388;-65
2021/07/12 01:05:56;;;;;;;1.05;0.50;;;23.30;59.00;;;;;;5013464;28;20936;-65
2021/07/12 01:08:22;;;;;;;0.63;0.40;;;23.30;59.00;;;;;;5013038;28;20395;-65
2021/07/12 01:11:00;;;;;;;2.13;0.80;;;23.30;59.10;;;;;;5013270;28;20400;-65
2021/07/12 01:13:56;;;;;;;1.37;0.40;;;23.30;59.00;;;;;;5013376;28;20389;-65
2021/07/12 01:16:33;;;;;;;1.20;0.50;;;23.30;59.00;;;;;;5012666;28;20903;-65
2021/07/12 01:19:15;;;;;;;0.85;0.40;;;23.30;58.90;;;;;;5013320;28;20857;-65
2021/07/12 01:22:14;;;;;;;1.10;0.50;;;23.30;58.90;;;;;;5013235;28;20405;-65
2021/07/12 01:25:02;;;;;;;1.40;0.70;;;23.30;58.90;;;;;;5012542;28;20405;-64
2021/07/12 01:27:46;;;;;;;1.33;0.60;;;23.30;58.90;;;;;;5013009;28;20918;-65
2021/07/12 01:30:27;;;;;;;1.02;0.50;;;23.30;58.80;;;;;;5012495;28;20397;-65
2021/07/12 01:33:16;;;;;;;0.80;0.50;;;23.30;58.90;;;;;;5011758;28;20409;-66
2021/07/12 01:36:00;;;;;;;1.25;0.40;;;23.30;58.90;;;;;;5011436;28;20925;-65
2021/07/12 01:38:26;;;;;;;1.15;0.50;;;23.30;58.90;;;;;;5027701;28;20880;-65
2021/07/12 01:40:55;;;;;;;1.35;0.50;;;23.30;58.80;;;;;;5011587;28;20409;-65
2021/07/12 01:43:28;;;;;;;0.82;0.50;;;23.20;58.70;;;;;;5012859;28;20407;-65
2021/07/12 01:45:56;;;;;;;1.00;0.50;;;23.20;58.70;;;;;;5027898;28;20401;-65
2021/07/12 01:48:54;;;;;;;0.93;0.50;;;23.20;58.60;;;;;;5012409;28;20397;-65
2021/07/12 01:51:29;;;;;;;1.15;0.50;;;23.20;58.70;;;;;;5010670;28;20421;-65
2021/07/12 01:54:26;;;;;;;1.25;0.40;;;23.20;58.60;;;;;;5012703;28;20896;-65
2021/07/12 01:57:03;;;;;;;0.82;0.50;;;23.20;58.60;;;;;;5012607;28;20876;-65
2021/07/12 01:59:40;;;;;;;1.55;0.50;;;23.20;58.60;;;;;;5012586;28;20914;-65
2021/07/12 02:02:07;;;;;;;0.90;0.50;;;23.20;58.60;;;;;;5011636;28;20472;-64
2021/07/12 02:04:34;;;;;;;1.10;0.50;;;23.20;58.60;;;;;;5011807;28;20393;-65
2021/07/12 02:07:01;;;;;;;1.10;0.50;;;23.20;58.50;;;;;;5011158;28;20921;-65
2021/07/12 02:09:28;;;;;;;0.93;0.52;;;23.20;58.60;;;;;;5012325;28;20395;-65
2021/07/12 02:11:58;;;;;;;1.40;0.50;;;23.20;58.50;;;;;;5012201;28;20427;-65
2021/07/12 02:14:25;;;;;;;2.80;0.60;;;23.20;58.60;;;;;;5026922;28;20412;-64
2021/07/12 02:16:53;;;;;;;0.93;0.40;;;23.20;58.50;;;;;;5011930;28;20420;-65
2021/07/12 02:19:20;;;;;;;0.93;0.50;;;23.20;58.50;;;;;;5012236;28;20435;-65
2021/07/12 02:21:49;;;;;;;0.77;0.40;;;23.20;58.40;;;;;;5010901;28;20396;-65
2021/07/12 02:24:17;;;;;;;1.50;0.50;;;23.20;58.50;;;;;;5011651;28;20443;-65
2021/07/12 02:26:44;;;;;;;1.08;0.40;;;23.10;58.50;;;;;;5012048;28;20385;-64
2021/07/12 02:29:09;;;;;;;1.23;0.50;;;23.10;58.30;;;;;;5012099;28;20384;-65
2021/07/12 02:31:37;;;;;;;1.13;0.60;;;23.10;58.40;;;;;;5011967;28;20823;-65
2021/07/12 02:34:04;;;;;;;1.05;0.47;;;23.10;58.30;;;;;;5011556;28;20388;-67
2021/07/12 02:36:31;;;;;;;1.40;0.50;;;23.10;58.30;;;;;;5010356;28;20401;-65
2021/07/12 02:38:58;;;;;;;1.52;0.60;;;23.10;58.30;;;;;;5011092;28;20431;-65
2021/07/12 02:41:26;;;;;;;0.80;0.50;;;23.10;58.40;;;;;;5011964;28;20451;-65
2021/07/12 02:43:53;;;;;;;0.95;0.50;;;23.10;58.30;;;;;;5027035;28;20396;-65
2021/07/12 02:46:19;;;;;;;1.40;0.50;;;23.10;58.30;;;;;;5011456;28;20487;-66
2021/07/12 02:48:45;;;;;;;1.88;0.50;;;23.10;58.30;;;;;;5026489;28;20483;-65
2021/07/12 02:51:15;;;;;;;0.80;0.50;;;23.10;58.20;;;;;;5011786;28;20507;-65
2021/07/12 02:53:47;;;;;;;2.20;0.60;;;23.10;58.30;;;;;;5011778;28;20384;-65
2021/07/12 02:56:13;;;;;;;1.38;0.60;;;23.10;58.30;;;;;;5011319;28;20915;-65
2021/07/12 02:58:38;;;;;;;0.85;0.50;;;23.10;58.30;;;;;;5011625;28;20384;-65
2021/07/12 03:01:04;;;;;;;1.43;0.60;;;23.10;58.30;;;;;;5011680;28;20426;-65
2021/07/12 03:03:30;;;;;;;1.45;0.50;;;23.10;58.20;;;;;;5011603;28;20396;-65
2021/07/12 03:06:04;;;;;;;0.90;0.57;;;23.10;58.30;;;;;;5011750;28;20389;-65
2021/07/12 03:08:36;;;;;;;1.33;0.60;;;23.10;58.30;;;;;;5011398;28;20381;-65
2021/07/12 03:11:05;;;;;;;4.00;0.65;;;23.00;58.00;;;;;;5010347;28;20746;-64
2021/07/12 03:13:44;;;;;;;1.70;0.45;;;23.10;59.60;;;;;;5011522;28;20401;-65
2021/07/12 03:16:12;;;;;;;1.13;0.50;;;23.10;59.80;;;;;;5011105;28;20416;-64
2021/07/12 03:18:47;;;;;;;1.20;0.88;;;23.10;59.90;;;;;;5010927;28;20401;-65
2021/07/12 03:21:14;;;;;;;1.38;0.70;;;23.10;60.50;;;;;;5009992;28;20420;-65
2021/07/12 03:23:42;;;;;;;1.55;0.52;;;23.20;60.30;;;;;;5010208;28;20393;-65
2021/07/12 03:26:10;;;;;;;1.80;0.60;;;23.20;60.30;;;;;;5009311;28;20868;-65
2021/07/12 03:28:37;;;;;;;3.95;0.70;;;23.20;61.20;;;;;;5025733;28;20902;-65
2021/07/12 03:31:04;;;;;;;4.03;0.73;;;23.30;61.30;;;;;;5011276;28;20433;-65
2021/07/12 03:33:31;;;;;;;9.60;0.90;;;23.30;60.90;;;;;;5010885;28;20408;-65
2021/07/12 03:35:58;;;;;;;9.48;0.90;;;23.30;61.30;;;;;;5025812;28;20873;-64
2021/07/12 03:38:24;;;;;;;5.18;1.00;;;23.40;61.50;;;;;;5008947;28;21011;-65
2021/07/12 03:40:50;;;;;;;11.73;1.05;;;23.40;61.60;;;;;;5003582;28;20484;-65
2021/07/12 03:43:17;;;;;;;3.75;0.70;;;23.40;61.70;;;;;;5000203;28;20502;-64
2021/07/12 03:45:51;;;;;;;4.28;0.60;;;23.40;61.70;;;;;;4999635;28;20403;-64
2021/07/12 03:48:17;;;;;;;2.70;0.70;;;23.40;60.40;;;;;;5016313;28;20919;-64
2021/07/12 03:50:43;;;;;;;2.90;0.70;;;23.40;61.40;;;;;;5005476;28;20404;-65
2021/07/12 03:53:08;;;;;;;4.20;0.73;;;23.40;61.10;;;;;;5009770;28;20915;-64
2021/07/12 03:55:34;;;;;;;5.10;0.80;;;23.40;60.90;;;;;;5014889;28;20400;-64
2021/07/12 03:58:00;;;;;;;8.10;0.80;;;23.30;61.00;;;;;;5014563;28;20408;-65
2021/07/12 04:00:28;;;;;;;6.40;0.70;;;23.30;60.40;;;;;;5013907;28;20815;-66
2021/07/12 04:02:55;;;;;;;7.82;1.00;;;23.30;60.50;;;;;;5014705;28;20397;-64
2021/07/12 04:05:25;;;;;;;5.68;0.80;;;23.30;59.90;;;;;;5013356;28;20752;-64
2021/07/12 04:07:52;;;;;;;6.25;1.10;;;23.20;59.10;;;;;;5029851;28;20400;-65
2021/07/12 04:10:18;;;;;;;5.13;1.17;;;23.20;58.50;;;;;;5014167;28;20385;-64
2021/07/12 04:12:45;;;;;;;2.20;0.80;;;23.20;57.30;;;;;;5014453;28;20408;-64
2021/07/12 04:15:12;;;;;;;6.55;1.00;;;23.10;57.40;;;;;;5014527;28;20396;-65
2021/07/12 04:17:42;;;;;;;5.47;0.77;;;23.10;57.30;;;;;;5014421;28;20397;-65
2021/07/12 04:20:09;;;;;;;3.35;0.90;;;23.10;56.90;;;;;;5014085;28;20910;-64
2021/07/12 04:22:35;;;;;;;3.72;1.10;;;23.10;56.70;;;;;;5014144;28;20888;-65
2021/07/12 04:25:05;;;;;;;9.85;0.90;;;23.10;56.80;;;;;;5014311;28;20449;-65
2021/07/12 04:27:31;;;;;;;2.72;0.70;;;23.10;57.10;;;;;;5014334;28;20419;-65
2021/07/12 04:29:57;;;;;;;7.05;1.00;;;23.10;57.40;;;;;;5013167;28;20447;-64
2021/07/12 04:32:23;;;;;;;2.60;0.70;;;23.10;57.40;;;;;;5013594;28;20945;-65
2021/07/12 04:34:49;;;;;;;2.28;0.70;;;23.10;57.10;;;;;;5013673;28;20804;-66
2021/07/12 04:37:14;;;;;;;3.58;0.90;;;23.10;57.20;;;;;;5013301;28;20393;-65
2021/07/12 04:39:40;;;;;;;3.27;0.70;;;23.10;57.80;;;;;;5013946;28;20756;-66
2021/07/12 04:42:07;;;;;;;3.47;0.80;;;23.10;57.30;;;;;;5004462;28;20430;-66
2021/07/12 04:44:32;;;;;;;4.05;0.70;;;23.10;57.40;;;;;;5000488;28;20382;-65
2021/07/12 04:47:00;;;;;;;2.33;0.80;;;23.10;57.50;;;;;;5003434;28;20407;-66
2021/07/12 04:49:26;;;;;;;2.53;0.60;;;23.10;57.60;;;;;;5003404;28;20402;-64
2021/07/12 04:51:52;;;;;;;1.95;0.60;;;23.10;57.70;;;;;;5001402;28;20414;-64
2021/07/12 04:54:19;;;;;;;2.60;0.70;;;23.10;57.70;;;;;;5002822;28;20392;-64
2021/07/12 04:56:44;;;;;;;1.88;0.60;;;23.10;57.80;;;;;;5003153;28;20386;-65
2021/07/12 04:59:11;;;;;;;2.67;0.60;;;23.00;58.00;;;;;;5001293;28;20885;-64
2021/07/12 05:01:37;;;;;;;2.30;0.57;;;23.10;57.80;;;;;;5003238;28;20393;-65
2021/07/12 05:04:06;;;;;;;1.58;0.60;;;23.10;58.10;;;;;;5011915;28;20439;-65
2021/07/12 05:06:33;;;;;;;2.45;0.55;;;23.00;58.00;;;;;;5013135;28;20435;-65
2021/07/12 05:08:58;;;;;;;2.15;0.82;;;23.00;58.60;;;;;;5013520;28;20389;-65
2021/07/12 05:11:25;;;;;;;1.48;0.70;;;23.10;58.10;;;;;;5013443;28;20836;-65
2021/07/12 05:13:52;;;;;;;2.30;0.80;;;23.10;58.20;;;;;;5013441;28;20428;-65
2021/07/12 05:16:18;;;;;;;1.10;0.60;;;23.10;58.10;;;;;;5012941;28;20909;-65
2021/07/12 05:18:44;;;;;;;2.10;0.60;;;23.00;58.10;;;;;;5012022;28;20940;-65
2021/07/12 05:21:09;;;;;;;1.60;0.60;;;23.10;58.20;;;;;;5013333;28;20399;-65
2021/07/12 05:23:37;;;;;;;1.30;0.50;;;23.10;58.30;;;;;;5013173;28;20428;-65
2021/07/12 05:26:03;;;;;;;2.03;0.52;;;23.10;58.20;;;;;;5013243;28;20392;-65
2021/07/12 05:28:29;;;;;;;1.73;0.52;;;23.10;58.40;;;;;;5027884;28;20401;-65
2021/07/12 05:30:55;;;;;;;1.27;0.50;;;23.10;58.30;;;;;;5013220;28;20499;-65
2021/07/12 05:33:20;;;;;;;2.08;0.57;;;23.00;58.30;;;;;;5013069;28;20443;-70
2021/07/12 05:35:46;;;;;;;1.10;0.60;;;23.10;58.40;;;;;;5012968;28;20942;-65
2021/07/12 05:38:12;;;;;;;1.90;0.70;;;23.10;58.40;;;;;;5012789;28;20401;-66
2021/07/12 05:40:37;;;;;;;1.80;0.50;;;23.10;58.50;;;;;;5012550;28;20417;-64
2021/07/12 05:43:04;;;;;;;1.10;0.63;;;23.10;58.60;;;;;;5013002;28;20451;-65
2021/07/12 05:45:30;;;;;;;1.15;0.60;;;23.10;58.70;;;;;;5012840;28;20381;-65
2021/07/12 05:47:56;;;;;;;0.82;0.50;;;23.10;58.60;;;;;;5012924;28;20404;-64
2021/07/12 05:50:22;;;;;;;1.35;0.50;;;23.10;58.60;;;;;;5012384;28;20411;-65
2021/07/12 05:52:47;;;;;;;1.10;0.50;;;23.10;58.50;;;;;;5012117;28;20404;-66
2021/07/12 05:55:14;;;;;;;1.30;0.50;;;23.10;58.60;;;;;;5012401;28;20431;-65
2021/07/12 05:57:39;;;;;;;1.20;0.63;;;23.10;58.60;;;;;;5012569;28;20400;-65
2021/07/12 06:00:08;;;;;;;1.30;0.43;;;23.10;58.60;;;;;;5012593;28;20452;-65
2021/07/12 06:02:33;;;;;;;1.10;0.60;;;23.10;58.50;;;;;;5012017;28;20483;-65
2021/07/12 06:04:59;;;;;;;1.25;0.47;;;23.10;58.60;;;;;;5012520;28;20416;-64
2021/07/12 06:07:24;;;;;;;1.27;0.50;;;23.20;58.60;;;;;;5012192;28;20443;-65
2021/07/12 06:09:50;;;;;;;1.75;0.50;;;23.10;58.60;;;;;;5012510;28;20431;-65
2021/07/12 06:12:16;;;;;;;1.00;0.53;;;23.20;58.60;;;;;;5011803;28;20774;-64
2021/07/12 06:14:41;;;;;;;2.22;0.50;;;23.20;58.50;;;;;;5012340;28;20487;-65
2021/07/12 06:17:07;;;;;;;1.00;0.50;;;23.20;58.50;;;;;;5012403;28;20455;-65
2021/07/12 06:19:33;;;;;;;1.13;0.40;;;23.20;58.60;;;;;;5027509;28;20458;-66
2021/07/12 06:21:59;;;;;;;1.30;0.60;;;23.20;58.50;;;;;;5012151;28;20408;-65
2021/07/12 06:24:24;;;;;;;0.85;0.52;;;23.20;58.40;;;;;;5011692;28;20385;-70
2021/07/12 06:26:50;;;;;;;0.83;0.50;;;23.20;58.40;;;;;;5011000;28;20400;-65
2021/07/12 06:29:17;;;;;;;1.02;0.50;;;23.20;58.40;;;;;;5012193;28;20435;-64
2021/07/12 06:31:42;;;;;;;0.70;0.32;;;23.20;58.40;;;;;;5011970;28;20432;-65
2021/07/12 06:34:08;;;;;;;0.70;0.50;;;23.20;58.40;;;;;;5012144;28;20399;-65
2021/07/12 06:36:33;;;;;;;0.90;0.45;;;23.20;58.40;;;;;;5011499;28;20484;-65
2021/07/12 06:38:59;;;;;;;1.20;0.47;;;23.20;58.50;;;;;;5011823;28;20424;-65
2021/07/12 06:41:25;;;;;;;1.08;0.50;;;23.20;58.40;;;;;;5010700;28;20408;-65
2021/07/12 06:43:51;;;;;;;1.67;0.43;;;23.20;58.40;;;;;;5011979;28;20393;-65
2021/07/12 06:46:17;;;;;;;0.98;0.50;;;23.20;58.40;;;;;;5011400;28;20393;-64
2021/07/12 06:48:44;;;;;;;0.80;0.50;;;23.20;58.50;;;;;;5009018;28;20420;-65
2021/07/12 06:51:10;;;;;;;1.20;0.50;;;23.20;58.50;;;;;;5000074;28;20402;-69
2021/07/12 06:53:36;;;;;;;1.20;0.50;;;23.20;58.50;;;;;;5000249;28;20509;-70
2021/07/12 06:56:03;;;;;;;0.95;0.50;;;23.20;58.60;;;;;;4998643;28;20386;-65
2021/07/12 06:58:30;;;;;;;1.50;0.40;;;23.30;58.60;;;;;;4997984;28;20412;-66
2021/07/12 07:00:55;;;;;;;0.80;0.40;;;23.20;58.50;;;;;;4998981;28;20414;-65
2021/07/12 07:03:21;;;;;;;1.13;0.33;;;23.20;58.60;;;;;;4998429;28;20932;-65
2021/07/12 07:05:47;;;;;;;1.30;0.65;;;23.20;58.70;;;;;;5001522;28;20428;-65
2021/07/12 07:08:13;;;;;;;0.93;0.40;;;23.20;58.70;;;;;;5000364;28;20440;-65
2021/07/12 07:10:39;;;;;;;0.85;0.50;;;23.20;58.60;;;;;;5000844;28;20637;-65
2021/07/12 07:13:05;;;;;;;0.70;0.40;;;23.20;58.60;;;;;;4999670;28;20490;-65
2021/07/12 07:15:31;;;;;;;0.80;0.40;;;23.20;58.60;;;;;;5002410;28;20398;-66
2021/07/12 07:17:57;;;;;;;0.85;0.47;;;23.20;58.60;;;;;;5000060;28;20440;-66
2021/07/12 07:20:23;;;;;;;1.00;0.50;;;23.30;58.90;;;;;;4999933;28;20483;-65
2021/07/12 07:22:49;;;;;;;0.60;0.40;;;23.20;58.60;;;;;;5000374;28;20537;-67
2021/07/12 07:25:15;;;;;;;1.55;0.45;;;23.20;58.50;;;;;;5003353;28;20417;-68
2021/07/12 07:27:41;;;;;;;1.02;0.50;;;23.30;58.50;;;;;;5003508;28;20475;-64
2021/07/12 07:30:07;;;;;;;0.70;0.43;;;23.30;58.60;;;;;;5003553;28;20518;-68
2021/07/12 07:32:33;;;;;;;1.00;0.50;;;23.30;58.50;;;;;;5005622;28;20418;-67
2021/07/12 07:34:59;;;;;;;0.90;0.40;;;23.30;58.50;;;;;;5003485;28;20387;-66
2021/07/12 07:37:25;;;;;;;0.80;0.50;;;23.30;58.50;;;;;;5003084;28;20408;-65
2021/07/12 07:39:50;;;;;;;0.80;0.50;;;23.30;58.50;;;;;;5004709;28;20415;-65
2021/07/12 07:42:16;;;;;;;1.03;0.60;;;23.30;58.50;;;;;;5002948;28;21022;-65
2021/07/12 07:44:42;;;;;;;1.15;0.50;;;23.30;58.50;;;;;;5002962;28;20419;-66
2021/07/12 07:47:09;;;;;;;0.90;0.50;;;23.30;58.50;;;;;;5004965;28;20413;-67
2021/07/12 07:49:35;;;;;;;1.50;0.50;;;23.30;58.50;;;;;;5003200;28;20485;-65
2021/07/12 07:52:01;;;;;;;0.83;0.50;;;23.30;58.50;;;;;;5002860;28;20517;-65
2021/07/12 07:54:27;;;;;;;0.90;0.50;;;23.30;58.50;;;;;;5004388;28;20392;-65
2021/07/12 07:56:52;;;;;;;0.80;0.50;;;23.30;58.40;;;;;;5003595;28;20413;-65
2021/07/12 07:59:19;;;;;;;1.02;0.50;;;23.30;58.50;;;;;;5003330;28;20535;-69
2021/07/12 08:01:45;;;;;;;0.98;0.52;;;23.30;58.50;;;;;;5005196;28;20405;-65
2021/07/12 08:04:11;;;;;;;1.25;0.50;;;23.30;58.50;;;;;;5003442;28;20394;-65
2021/07/12 08:06:36;;;;;;;0.73;0.40;;;23.30;58.50;;;;;;5002820;28;20400;-66
2021/07/12 08:09:03;;;;;;;0.90;0.50;;;23.30;58.40;;;;;;5002150;28;20390;-65
2021/07/12 08:11:34;;;;;;;0.82;0.50;;;23.30;58.30;;;;;;5004219;28;20470;-66
2021/07/12 08:14:00;;;;;;;1.20;0.40;;;23.30;58.40;;;;;;5004482;28;20401;-68
2021/07/12 08:16:26;;;;;;;0.80;0.50;;;23.30;58.30;;;;;;4984247;28;20409;-65
2021/07/12 08:18:52;;;;;;;0.70;0.45;;;23.30;58.20;;;;;;5003211;28;20436;-65
2021/07/12 08:21:17;;;;;;;0.90;0.50;;;23.30;58.30;;;;;;5002741;28;20896;-65
2021/07/12 08:23:43;;;;;;;0.75;0.40;;;23.30;58.10;;;;;;5004480;28;20420;-68
2021/07/12 08:26:10;;;;;;;1.30;0.50;;;23.30;58.20;;;;;;5002521;28;20908;-70
2021/07/12 08:28:36;;;;;;;0.80;0.40;;;23.30;58.20;;;;;;5000951;28;20397;-65
2021/07/12 08:31:03;;;;;;;1.05;0.40;;;23.30;58.20;;;;;;5003972;28;20411;-65
2021/07/12 08:33:29;;;;;;;1.00;0.50;;;23.30;58.00;;;;;;5002379;28;20426;-68
2021/07/12 08:35:55;;;;;;;1.10;0.50;;;23.30;58.10;;;;;;4999488;28;20868;-65
2021/07/12 08:38:20;;;;;;;0.70;0.40;;;23.30;58.10;;;;;;5003833;28;20423;-65
2021/07/12 08:40:47;;;;;;;0.60;0.43;;;23.30;58.10;;;;;;5000684;28;20406;-65
2021/07/12 08:43:14;;;;;;;0.70;0.40;;;23.30;58.10;;;;;;5003322;28;20404;-65
2021/07/12 08:45:40;;;;;;;0.73;0.40;;;23.30;58.20;;;;;;5004088;28;20746;-65
2021/07/12 08:48:06;;;;;;;1.17;0.50;;;23.30;58.00;;;;;;5002107;28;20404;-65
2021/07/12 08:50:33;;;;;;;0.50;0.32;;;23.30;57.90;;;;;;5002446;28;20412;-65
2021/07/12 08:52:58;;;;;;;1.42;0.40;;;23.30;58.10;;;;;;5003757;28;20484;-66
2021/07/12 08:55:24;;;;;;;1.70;0.40;;;23.30;58.10;;;;;;5001235;28;20408;-65
2021/07/12 08:58:22;;;;;;;0.80;0.35;;;23.30;58.10;;;;;;5002321;28;20434;-65
2021/07/12 09:00:57;;;;;;;0.60;0.40;;;23.30;58.10;;;;;;5003399;28;20804;-68
2021/07/12 09:03:25;;;;;;;0.90;0.50;;;23.30;58.10;;;;;;5003706;28;20394;-65
2021/07/12 09:05:53;;;;;;;0.70;0.40;;;23.30;58.10;;;;;;5002421;28;20383;-65
2021/07/12 09:08:34;;;;;;;1.00;0.40;;;23.30;58.10;;;;;;5001655;28;20400;-65
2021/07/12 09:11:36;;;;;;;1.10;0.40;;;23.30;58.10;;;;;;5003505;28;21824;-65
2021/07/12 09:14:09;;;;;;;0.60;0.40;;;23.30;58.00;;;;;;4999557;28;20450;-66
2021/07/12 09:16:41;;;;;;;1.50;0.40;;;23.30;58.10;;;;;;5003790;28;20392;-68
2021/07/12 09:19:14;;;;;;;0.65;0.43;;;23.30;58.10;;;;;;5001703;28;20445;-66
2021/07/12 09:22:09;;;;;;;0.65;0.45;;;23.30;58.10;;;;;;5001274;28;20400;-65
2021/07/12 09:24:57;;;;;;;1.25;0.50;;;23.30;58.10;;;;;;4991890;28;20409;-67
2021/07/12 09:27:26;;;;;;;1.00;0.40;;;23.30;58.10;;;;;;5003244;28;20389;-65
2021/07/12 09:30:06;;;;;;;0.73;0.40;;;23.40;58.10;;;;;;5001865;28;20431;-68
2021/07/12 09:32:34;;;;;;;0.60;0.35;;;23.40;58.10;;;;;;4998725;28;20427;-68
2021/07/12 09:35:09;;;;;;;0.80;0.50;;;23.30;58.10;;;;;;5001113;28;20385;-66
2021/07/12 09:37:40;;;;;;;1.40;0.50;;;23.30;58.10;;;;;;5002275;28;20397;-65
2021/07/12 09:40:08;;;;;;;0.98;0.47;;;23.30;58.10;;;;;;5000884;28;20906;-65
2021/07/12 09:42:35;;;;;;;0.90;0.50;;;23.30;58.10;;;;;;5001360;28;20401;-65
2021/07/12 09:45:05;;;;;;;0.77;0.50;;;23.30;58.00;;;;;;4999691;28;20395;-65
2021/07/12 09:47:34;;;;;;;0.70;0.50;;;23.30;58.00;;;;;;5000141;28;20400;-65
2021/07/12 09:50:06;;;;;;;1.35;0.50;;;23.30;58.00;;;;;;5000167;28;20389;-66
2021/07/12 09:52:42;;;;;;;0.80;0.50;;;23.30;58.00;;;;;;5001273;28;20426;-65
2021/07/12 09:55:13;;;;;;;0.90;0.40;;;23.30;58.10;;;;;;5000986;28;20409;-65
2021/07/12 09:57:39;;;;;;;0.90;0.50;;;23.30;58.10;;;;;;5000937;28;20385;-67
2021/07/12 10:00:09;;;;;;;1.60;0.50;;;23.30;58.10;;;;;;5001088;28;20397;-65
2021/07/12 10:02:40;;;;;;;0.90;0.60;;;23.30;58.10;;;;;;5000217;28;20395;-65
2021/07/12 10:05:10;;;;;;;0.90;0.43;;;23.30;58.00;;;;;;5002109;28;20920;-64
2021/07/12 10:07:37;;;;;;;0.80;0.50;;;23.30;58.00;;;;;;5006079;28;20425;-66
2021/07/12 10:10:13;;;;;;;0.88;0.57;;;23.30;58.10;;;;;;5000529;28;20391;-66
2021/07/12 10:12:44;;;;;;;0.88;0.50;;;23.30;58.10;;;;;;4999683;28;20982;-65
2021/07/12 10:15:13;;;;;;;0.90;0.60;;;23.30;58.10;;;;;;5001382;28;20408;-68
2021/07/12 10:17:46;;;;;;;1.05;0.40;;;23.30;58.10;;;;;;5002257;28;20405;-67
2021/07/12 10:20:14;;;;;;;0.98;0.50;;;23.30;58.10;;;;;;5000311;28;20399;-65
2021/07/12 10:22:42;;;;;;;0.77;0.50;;;23.30;58.10;;;;;;4999850;28;20391;-65
2021/07/12 10:25:19;;;;;;;0.98;0.60;;;23.30;58.10;;;;;;5000394;28;20400;-69
2021/07/12 10:28:03;;;;;;;0.88;0.57;;;23.30;58.10;;;;;;4997348;28;20422;-66
2021/07/12 10:30:43;;;;;;;1.02;0.60;;;23.30;58.10;;;;;;4992108;28;20449;-65
2021/07/12 10:33:11;;;;;;;1.08;0.57;;;23.30;58.10;;;;;;5001958;28;20408;-65
2021/07/12 10:35:54;;;;;;;0.80;0.50;;;23.30;58.10;;;;;;5000853;28;20871;-65
2021/07/12 10:38:24;;;;;;;1.50;0.80;;;23.30;58.10;;;;;;4999348;28;20418;-65
2021/07/12 10:40:59;;;;;;;0.80;0.55;;;23.30;58.10;;;;;;5000958;28;20415;-65
2021/07/12 10:43:54;;;;;;;1.20;0.60;;;23.30;58.20;;;;;;4999971;28;21837;-66
2021/07/12 10:46:26;;;;;;;1.10;0.60;;;23.30;58.10;;;;;;4999961;28;20517;-66
2021/07/12 10:48:54;;;;;;;0.90;0.50;;;23.30;58.20;;;;;;4999017;28;20529;-65
2021/07/12 10:51:25;;;;;;;0.98;0.68;;;23.30;58.20;;;;;;4999374;28;21070;-66
2021/07/12 10:54:11;;;;;;;1.30;0.55;;;23.30;58.20;;;;;;5003345;28;20408;-66
2021/07/12 10:56:53;;;;;;;1.30;0.60;;;23.30;58.20;;;;;;5001385;28;20388;-65
2021/07/12 10:59:25;;;;;;;1.00;0.60;;;23.30;58.20;;;;;;5000574;28;20430;-65
2021/07/12 11:01:50;;;;;;;1.20;0.60;;;23.30;58.20;;;;;;4998258;28;20933;-65
2021/07/12 11:04:39;;;;;;;1.10;0.60;;;23.30;58.30;;;;;;5000447;28;20385;-66
2021/07/12 11:07:16;;;;;;;1.08;0.70;;;23.30;58.30;;;;;;5001733;28;20414;-65
2021/07/12 11:09:53;;;;;;;1.00;0.63;;;23.30;58.20;;;;;;4998885;28;20385;-65
2021/07/12 11:12:27;;;;;;;1.05;0.63;;;23.30;58.20;;;;;;5000745;28;20794;-67
2021/07/12 11:15:17;;;;;;;0.90;0.60;;;23.30;58.30;;;;;;4999624;28;20608;-68
2021/07/12 11:18:00;;;;;;;1.23;0.70;;;23.30;58.20;;;;;;4998241;28;20409;-65
2021/07/12 11:20:44;;;;;;;1.15;0.80;;;23.30;58.20;;;;;;5001289;28;20400;-66
2021/07/12 11:23:39;;;;;;;1.10;0.60;;;23.30;58.30;;;;;;5001734;28;20380;-65
2021/07/12 11:26:20;;;;;;;1.02;0.60;;;23.30;58.20;;;;;;5001713;28;20394;-69
2021/07/12 11:28:51;;;;;;;0.85;0.52;;;23.30;58.30;;;;;;4998461;28;20791;-65
2021/07/12 11:31:38;;;;;;;1.00;0.70;;;23.30;58.30;;;;;;4991884;28;20423;-65
2021/07/12 11:34:06;;;;;;;1.20;0.70;;;23.30;58.30;;;;;;4991100;28;20390;-65
2021/07/12 11:36:32;;;;;;;1.10;0.70;;;23.40;58.30;;;;;;4991390;28;20468;-64
2021/07/12 11:38:57;;;;;;;1.50;0.90;;;23.30;58.30;;;;;;4991672;28;20863;-64
2021/07/12 11:41:24;;;;;;;1.23;0.77;;;23.40;58.30;;;;;;4990574;28;20418;-65
2021/07/12 11:44:10;;;;;;;2.00;0.63;;;23.30;58.60;;;;;;4991788;28;20434;-65
2021/07/12 11:46:36;;;;;;;2.30;0.70;;;23.40;58.50;;;;;;5000029;28;20406;-65
2021/07/12 11:49:16;;;;;;;4.13;0.80;;;23.40;58.60;;;;;;4999151;28;20390;-65
2021/07/12 11:51:43;;;;;;;1.05;0.70;;;23.40;58.60;;;;;;4999055;28;20950;-66
2021/07/12 11:54:17;;;;;;;2.80;0.60;;;23.40;58.60;;;;;;5000957;28;20389;-65
2021/07/12 11:57:04;;;;;;;1.95;0.77;;;23.40;58.60;;;;;;4998264;28;20398;-65
2021/07/12 11:59:37;;;;;;;1.50;0.63;;;23.40;58.50;;;;;;4999875;28;20495;-68
2021/07/12 12:02:08;;;;;;;1.00;0.70;;;23.40;58.60;;;;;;5001410;28;20425;-66
2021/07/12 12:05:00;;;;;;;1.40;0.70;;;23.40;58.50;;;;;;5001611;28;20399;-65
2021/07/12 12:07:38;;;;;;;1.55;0.70;;;23.40;58.50;;;;;;4998634;28;20434;-68
2021/07/12 12:10:06;;;;;;;2.20;0.95;;;23.40;58.40;;;;;;5001448;28;20433;-70
2021/07/12 12:12:45;;;;;;;1.50;0.90;;;23.40;58.50;;;;;;5002270;28;20431;-65
2021/07/12 12:15:24;;;;;;;1.40;0.90;;;23.40;58.50;;;;;;5003084;28;20391;-65
2021/07/12 12:18:00;;;;;;;1.35;0.93;;;23.40;58.50;;;;;;5001816;28;20385;-68
2021/07/12 12:20:36;;;;;;;1.35;0.75;;;23.40;58.50;;;;;;5003222;28;20400;-66
2021/07/12 12:23:04;;;;;;;0.93;0.60;;;23.40;58.50;;;;;;5003239;28;20421;-65
2021/07/12 12:25:34;;;;;;;1.60;0.80;;;23.40;58.50;;;;;;5001678;28;20397;-64
2021/07/12 12:27:59;;;;;;;2.20;0.93;;;23.50;58.50;;;;;;5003590;28;20771;-65
2021/07/12 12:30:25;;;;;;;2.72;1.00;;;23.40;58.60;;;;;;5000844;28;20391;-65
2021/07/12 12:32:59;;;;;;;2.22;1.00;;;23.40;58.80;;;;;;5003397;28;20420;-65
2021/07/12 12:35:28;;;;;;;3.13;1.17;;;23.50;58.70;;;;;;5001905;28;20401;-65
2021/07/12 12:37:54;;;;;;;3.60;1.10;;;23.50;58.90;;;;;;5004766;28;20472;-66
2021/07/12 12:40:21;;;;;;;2.72;1.08;;;23.50;59.00;;;;;;5004087;28;20410;-64
2021/07/12 12:42:49;;;;;;;4.20;1.35;;;23.50;59.00;;;;;;5004171;28;21221;-65
2021/07/12 12:45:28;;;;;;;2.90;1.30;;;23.50;59.30;;;;;;5004705;28;20400;-65
2021/07/12 12:47:54;;;;;;;1.90;1.20;;;23.60;59.30;;;;;;5002615;28;20391;-67
2021/07/12 12:50:20;;;;;;;2.47;1.20;;;23.60;59.50;;;;;;5002508;28;20404;-67
2021/07/12 12:52:46;;;;;;;2.90;1.20;;;23.60;59.50;;;;;;5002066;28;20419;-65
2021/07/12 12:55:12;;;;;;;2.45;1.33;;;23.60;59.50;;;;;;5002217;28;20386;-65
2021/07/12 12:57:47;;;;;;;3.20;1.40;;;23.60;59.50;;;;;;5001309;28;20404;-66
2021/07/12 13:00:17;;;;;;;3.72;1.60;;;23.60;59.40;;;;;;5001265;28;20392;-66